Time;durP1;ratioP1;P1;durP2;ratioP2;P2;SDS_P1;SDS_P2;PMS_P1;PMS_P2;Temp;Humidity;BMP_temperature;BMP_pressure;BME280_temperature;BME280_humidity;BME280_pressure;Samples;Min_cycle;Max_cycle;Signal;HPM_P1;HPM_P2
2022/10/02 00:00:06;;;;;;;7.18;1.10;;;14.80;76.00;;;;;;5072723;28;20053;-59
2022/10/02 00:02:55;;;;;;;5.72;1.08;;;14.80;75.70;;;;;;5101173;28;20084;-58
2022/10/02 00:05:34;;;;;;;4.00;1.08;;;14.90;75.90;;;;;;5068214;28;20033;-59
2022/10/02 00:08:17;;;;;;;2.83;0.90;;;14.90;75.70;;;;;;5082331;28;20511;-60
2022/10/02 00:11:01;;;;;;;4.57;1.17;;;14.90;75.80;;;;;;5086188;28;20027;-58
2022/10/02 00:13:53;;;;;;;3.65;0.90;;;14.90;75.70;;;;;;5088533;28;20036;-58
2022/10/02 00:16:36;;;;;;;5.75;1.02;;;14.90;75.70;;;;;;5091232;28;20040;-59
2022/10/02 00:19:02;;;;;;;6.25;1.60;;;14.90;75.50;;;;;;5092136;28;20029;-58
2022/10/02 00:21:34;;;;;;;6.38;1.95;;;14.90;75.20;;;;;;5109931;28;20028;-59
2022/10/02 00:24:02;;;;;;;9.05;3.38;;;14.90;75.40;;;;;;5111536;28;20081;-58
2022/10/02 00:26:37;;;;;;;10.30;3.17;;;14.90;75.30;;;;;;5110586;28;20036;-59
2022/10/02 00:29:27;;;;;;;6.13;1.95;;;14.80;75.30;;;;;;5112427;28;20050;-57
2022/10/02 00:31:55;;;;;;;6.07;2.47;;;14.80;75.40;;;;;;5072064;28;20028;-59
2022/10/02 00:34:34;;;;;;;4.18;1.73;;;14.70;75.10;;;;;;5107287;28;20059;-58
2022/10/02 00:37:10;;;;;;;4.15;2.08;;;14.70;75.30;;;;;;5075399;28;20032;-59
2022/10/02 00:39:38;;;;;;;5.47;1.10;;;14.60;75.00;;;;;;5107958;28;20115;-60
2022/10/02 00:42:08;;;;;;;2.88;1.20;;;14.60;75.10;;;;;;5087379;28;20548;-59
2022/10/02 00:45:18;;;;;;;6.18;1.85;;;14.60;75.10;;;;;;5089373;28;20047;-59
2022/10/02 00:47:59;;;;;;;8.25;1.98;;;14.50;75.10;;;;;;5079783;28;20043;-59
2022/10/02 00:50:56;;;;;;;4.53;1.70;;;14.40;74.90;;;;;;5081352;28;20104;-60
2022/10/02 00:53:41;;;;;;;3.78;1.75;;;14.40;75.20;;;;;;5064038;28;20124;-60
2022/10/02 00:56:18;;;;;;;5.90;1.92;;;14.30;75.00;;;;;;5064916;28;20048;-60
2022/10/02 00:59:31;;;;;;;4.45;1.42;;;14.30;75.00;;;;;;5101855;28;20028;-60
2022/10/02 01:02:06;;;;;;;7.20;1.52;;;14.30;75.60;;;;;;5073344;28;20055;-59
2022/10/02 01:04:35;;;;;;;2.83;1.40;;;14.20;75.30;;;;;;5068872;28;20044;-60
2022/10/02 01:07:06;;;;;;;3.45;1.30;;;14.20;75.40;;;;;;5083190;28;20115;-59
2022/10/02 01:09:32;;;;;;;3.50;1.40;;;14.10;75.50;;;;;;5084559;28;20158;-59
2022/10/02 01:11:59;;;;;;;3.30;1.10;;;14.10;75.70;;;;;;5083236;28;20033;-60
2022/10/02 01:14:35;;;;;;;4.32;1.20;;;14.10;75.90;;;;;;5067625;28;20040;-60
2022/10/02 01:17:02;;;;;;;3.63;1.25;;;14.10;76.50;;;;;;5082852;28;20028;-59
2022/10/02 01:19:39;;;;;;;3.67;1.00;;;14.10;76.20;;;;;;5084238;28;20032;-60
2022/10/02 01:22:33;;;;;;;5.10;1.05;;;14.10;76.60;;;;;;5083127;28;20060;-60
2022/10/02 01:25:05;;;;;;;4.78;1.40;;;14.10;76.70;;;;;;5084509;28;20024;-60
2022/10/02 01:27:33;;;;;;;4.60;1.20;;;14.10;76.50;;;;;;5070983;28;20036;-58
2022/10/02 01:30:03;;;;;;;4.20;1.00;;;14.10;76.50;;;;;;5085943;28;20033;-60
2022/10/02 01:32:30;;;;;;;6.40;1.40;;;14.10;76.60;;;;;;5104056;28;20046;-61
2022/10/02 01:34:56;;;;;;;5.55;1.08;;;14.10;76.70;;;;;;5106439;28;20047;-61
2022/10/02 01:37:26;;;;;;;5.70;1.27;;;14.10;76.90;;;;;;5091898;28;20062;-60
2022/10/02 01:39:52;;;;;;;4.20;1.20;;;14.20;77.00;;;;;;5106425;28;20080;-60
2022/10/02 01:42:19;;;;;;;4.18;1.13;;;14.20;76.90;;;;;;5085582;28;20048;-59
2022/10/02 01:44:46;;;;;;;3.80;1.10;;;14.20;77.00;;;;;;5084655;28;20379;-59
2022/10/02 01:47:24;;;;;;;5.03;1.38;;;14.20;76.90;;;;;;5104746;28;20051;-60
2022/10/02 01:50:15;;;;;;;5.13;1.15;;;14.20;77.10;;;;;;5092342;28;20537;-59
2022/10/02 01:53:09;;;;;;;5.07;1.40;;;14.20;77.30;;;;;;5101800;28;20058;-60
2022/10/02 01:55:56;;;;;;;7.57;1.23;;;14.20;77.00;;;;;;5079001;28;20047;-59
2022/10/02 01:58:39;;;;;;;2.55;0.90;;;14.20;77.00;;;;;;5079110;28;20086;-59
2022/10/02 02:01:11;;;;;;;8.50;1.30;;;14.20;77.20;;;;;;5066023;28;20029;-59
2022/10/02 02:03:53;;;;;;;6.60;1.73;;;14.20;76.80;;;;;;5088357;28;20035;-60
2022/10/02 02:07:15;;;;;;;4.13;1.27;;;14.20;77.00;;;;;;5065701;28;20039;-61
2022/10/02 02:09:52;;;;;;;7.05;1.92;;;14.20;77.40;;;;;;5061032;28;20068;-59
2022/10/02 02:12:41;;;;;;;4.15;1.42;;;14.20;76.80;;;;;;5032851;28;20041;-59
2022/10/02 02:15:19;;;;;;;5.38;1.40;;;14.20;76.80;;;;;;5030018;28;20041;-59
2022/10/02 02:18:01;;;;;;;3.72;1.00;;;14.20;76.90;;;;;;5037632;28;20083;-59
2022/10/02 02:20:32;;;;;;;3.78;0.80;;;14.20;77.00;;;;;;5030287;28;20042;-59
2022/10/02 02:23:07;;;;;;;3.75;0.90;;;14.20;77.00;;;;;;5059148;28;20025;-59
2022/10/02 02:25:39;;;;;;;4.35;1.20;;;14.20;77.20;;;;;;5030301;28;20065;-60
2022/10/02 02:28:12;;;;;;;4.90;1.00;;;14.20;77.40;;;;;;5049318;28;20029;-59
2022/10/02 02:30:42;;;;;;;4.57;1.27;;;14.30;77.50;;;;;;5070020;28;20037;-59
2022/10/02 02:33:22;;;;;;;5.05;1.00;;;14.30;77.40;;;;;;5048303;28;20195;-59
2022/10/02 02:35:53;;;;;;;3.00;1.10;;;14.30;77.50;;;;;;5030173;28;20034;-60
2022/10/02 02:38:27;;;;;;;3.90;1.02;;;14.30;77.40;;;;;;5032540;28;20076;-59
2022/10/02 02:40:56;;;;;;;3.13;1.00;;;14.30;77.50;;;;;;5049698;28;20573;-59
2022/10/02 02:43:31;;;;;;;3.20;0.90;;;14.30;77.20;;;;;;5068754;28;20025;-60
2022/10/02 02:46:05;;;;;;;5.22;1.13;;;14.30;77.40;;;;;;5063336;28;20049;-59
2022/10/02 02:48:47;;;;;;;4.17;0.80;;;14.30;77.20;;;;;;5088937;28;20065;-60
2022/10/02 02:51:15;;;;;;;5.88;0.93;;;14.40;77.60;;;;;;5112500;28;20044;-59
2022/10/02 02:53:53;;;;;;;3.67;0.93;;;14.30;77.70;;;;;;5091303;28;20048;-60
2022/10/02 02:56:20;;;;;;;4.82;1.02;;;14.30;77.20;;;;;;5072135;28;20037;-60
2022/10/02 02:58:58;;;;;;;3.38;0.95;;;14.30;77.10;;;;;;5094792;28;20054;-61
2022/10/02 03:01:24;;;;;;;6.07;1.45;;;14.30;77.10;;;;;;5072050;28;20510;-58
2022/10/02 03:03:51;;;;;;;6.60;1.23;;;14.40;77.00;;;;;;5093601;28;20052;-59
2022/10/02 03:06:17;;;;;;;2.45;1.00;;;14.30;77.00;;;;;;5110555;28;20364;-59
2022/10/02 03:08:44;;;;;;;4.25;0.90;;;14.30;77.00;;;;;;5091275;28;20031;-59
2022/10/02 03:11:22;;;;;;;4.93;1.30;;;14.40;77.10;;;;;;5111359;28;20036;-60
2022/10/02 03:13:56;;;;;;;5.50;1.20;;;14.40;77.20;;;;;;5095015;28;20093;-60
2022/10/02 03:16:35;;;;;;;7.40;1.63;;;14.40;77.10;;;;;;5111873;28;20028;-60
2022/10/02 03:19:25;;;;;;;2.75;1.08;;;14.40;76.80;;;;;;5088294;28;20032;-60
2022/10/02 03:22:14;;;;;;;3.67;1.10;;;14.30;76.80;;;;;;5070463;28;20032;-61
2022/10/02 03:24:42;;;;;;;4.55;1.40;;;14.40;76.90;;;;;;5068100;28;20067;-59
2022/10/02 03:27:25;;;;;;;5.40;1.10;;;14.30;76.60;;;;;;5098251;28;20025;-58
2022/10/02 03:30:20;;;;;;;4.65;1.00;;;14.30;76.70;;;;;;5108853;28;20024;-59
2022/10/02 03:32:50;;;;;;;3.72;1.00;;;14.30;76.90;;;;;;5073199;28;20059;-59
2022/10/02 03:35:17;;;;;;;5.43;1.17;;;14.30;76.40;;;;;;5108621;28;20028;-60
2022/10/02 03:37:49;;;;;;;5.85;1.42;;;14.20;76.40;;;;;;5093806;28;20028;-59
2022/10/02 03:40:15;;;;;;;4.00;1.20;;;14.20;76.60;;;;;;5108636;28;20050;-60
2022/10/02 03:42:41;;;;;;;11.82;1.25;;;14.20;76.60;;;;;;5086737;28;20076;-59
2022/10/02 03:45:07;;;;;;;5.32;1.17;;;14.20;76.70;;;;;;5107717;28;20096;-58
2022/10/02 03:47:33;;;;;;;2.55;1.08;;;14.10;76.90;;;;;;5091785;28;20040;-61
2022/10/02 03:49:59;;;;;;;4.80;1.42;;;14.10;77.10;;;;;;5095203;28;20055;-60
2022/10/02 03:52:25;;;;;;;4.93;1.10;;;14.10;77.10;;;;;;5096674;28;20092;-61
2022/10/02 03:54:55;;;;;;;5.28;1.30;;;14.10;77.20;;;;;;5088032;28;20037;-61
2022/10/02 03:57:25;;;;;;;6.78;1.10;;;14.10;77.30;;;;;;5101708;28;20111;-59
2022/10/02 04:00:27;;;;;;;3.67;1.02;;;14.10;77.50;;;;;;5087970;28;20021;-60
2022/10/02 04:03:14;;;;;;;5.95;1.38;;;14.10;78.10;;;;;;5069880;28;20037;-59
2022/10/02 04:06:01;;;;;;;5.40;1.70;;;14.10;77.80;;;;;;5068037;28;20036;-60
2022/10/02 04:08:38;;;;;;;5.90;1.80;;;14.20;78.00;;;;;;5078039;28;20029;-61
2022/10/02 04:11:07;;;;;;;4.07;1.20;;;14.10;77.70;;;;;;5067858;28;20043;-59
2022/10/02 04:13:42;;;;;;;5.82;1.50;;;14.20;77.70;;;;;;5094730;28;20052;-60
2022/10/02 04:16:19;;;;;;;7.68;1.88;;;14.20;77.70;;;;;;5067632;28;20098;-60
2022/10/02 04:18:58;;;;;;;4.50;1.27;;;14.20;77.90;;;;;;5105063;28;20032;-58
2022/10/02 04:21:57;;;;;;;4.10;1.20;;;14.20;77.90;;;;;;5087649;28;20364;-59
2022/10/02 04:24:32;;;;;;;4.45;1.42;;;14.20;78.00;;;;;;5085238;28;20032;-58
2022/10/02 04:27:13;;;;;;;4.13;1.30;;;14.20;77.50;;;;;;5067655;28;20060;-59
2022/10/02 04:29:57;;;;;;;4.38;1.45;;;14.20;77.80;;;;;;5067464;28;20029;-61
2022/10/02 04:32:31;;;;;;;3.40;1.20;;;14.20;77.90;;;;;;5067995;28;20157;-58
2022/10/02 04:34:58;;;;;;;4.97;1.55;;;14.20;77.40;;;;;;5068276;28;20101;-59
2022/10/02 04:37:48;;;;;;;8.93;1.40;;;14.20;77.30;;;;;;5104563;28;20032;-59
2022/10/02 04:40:40;;;;;;;3.58;0.90;;;14.20;77.50;;;;;;5067321;28;20040;-60
2022/10/02 04:43:20;;;;;;;4.97;1.52;;;14.20;77.80;;;;;;5098686;28;20537;-59
2022/10/02 04:46:02;;;;;;;3.70;0.98;;;14.20;77.40;;;;;;5067276;28;20043;-60
2022/10/02 04:48:31;;;;;;;3.15;1.00;;;14.20;77.40;;;;;;5078977;28;20075;-59
2022/10/02 04:51:13;;;;;;;2.50;1.10;;;14.20;77.20;;;;;;5086810;28;20174;-60
2022/10/02 04:54:08;;;;;;;4.45;1.38;;;14.20;77.50;;;;;;5077339;28;20040;-58
2022/10/02 04:56:33;;;;;;;10.50;1.65;;;14.20;77.70;;;;;;5066978;28;20025;-59
2022/10/02 04:59:28;;;;;;;3.72;1.48;;;14.20;77.00;;;;;;5096920;28;20078;-60
2022/10/02 05:02:15;;;;;;;7.18;1.63;;;14.10;77.50;;;;;;5063799;28;20402;-59
2022/10/02 05:05:05;;;;;;;4.43;1.30;;;14.10;77.60;;;;;;5085742;28;20033;-59
2022/10/02 05:07:44;;;;;;;4.70;1.75;;;14.20;78.00;;;;;;5105125;28;20069;-59
2022/10/02 05:10:16;;;;;;;3.22;1.30;;;14.10;77.50;;;;;;5106944;28;20027;-61
2022/10/02 05:12:42;;;;;;;9.02;1.80;;;14.20;77.80;;;;;;5086263;28;20040;-59
2022/10/02 05:15:46;;;;;;;2.55;1.10;;;14.20;77.80;;;;;;5106244;28;20028;-61
2022/10/02 05:18:56;;;;;;;6.13;2.03;;;14.20;78.00;;;;;;5072182;28;20119;-59
2022/10/02 05:21:39;;;;;;;7.35;2.08;;;14.20;77.90;;;;;;5069803;28;20617;-60
2022/10/02 05:24:26;;;;;;;8.35;1.67;;;14.20;78.30;;;;;;5079810;28;20103;-61
2022/10/02 05:27:13;;;;;;;3.60;1.05;;;14.20;78.00;;;;;;5073897;28;20047;-61
2022/10/02 05:29:46;;;;;;;3.65;1.50;;;14.30;78.10;;;;;;5084190;28;20032;-61
2022/10/02 05:32:31;;;;;;;7.97;1.75;;;14.30;77.80;;;;;;5066476;28;20418;-60
2022/10/02 05:35:05;;;;;;;7.45;2.20;;;14.30;78.20;;;;;;5105125;28;20028;-59
2022/10/02 05:37:31;;;;;;;6.80;1.80;;;14.30;77.80;;;;;;5066102;28;20045;-59
2022/10/02 05:40:09;;;;;;;7.32;1.67;;;14.30;77.50;;;;;;5105640;28;20115;-60
2022/10/02 05:42:56;;;;;;;8.00;1.95;;;14.30;77.70;;;;;;5067552;28;20021;-60
2022/10/02 05:45:39;;;;;;;5.30;1.60;;;14.30;77.50;;;;;;5104882;28;20039;-59
2022/10/02 05:48:27;;;;;;;4.57;1.27;;;14.40;77.60;;;;;;5066210;28;20052;-61
2022/10/02 05:51:01;;;;;;;7.88;1.70;;;14.40;77.50;;;;;;5099465;28;20055;-59
2022/10/02 05:53:49;;;;;;;5.85;1.98;;;14.40;77.30;;;;;;5073312;28;20052;-59
2022/10/02 05:56:17;;;;;;;8.55;1.45;;;14.50;77.20;;;;;;5065720;28;20029;-58
2022/10/02 05:58:55;;;;;;;6.05;1.40;;;14.50;77.00;;;;;;5094081;28;20039;-59
2022/10/02 06:01:32;;;;;;;3.60;1.17;;;14.50;77.10;;;;;;5064453;28;20055;-59
2022/10/02 06:04:21;;;;;;;5.38;1.67;;;14.50;76.90;;;;;;5077251;28;20039;-58
2022/10/02 06:06:53;;;;;;;5.32;1.35;;;14.50;77.10;;;;;;5065835;28;20029;-60
2022/10/02 06:09:22;;;;;;;5.63;1.40;;;14.50;76.90;;;;;;5080064;28;20103;-60
2022/10/02 06:11:58;;;;;;;6.80;1.60;;;14.50;77.00;;;;;;5097519;28;20029;-60
2022/10/02 06:14:26;;;;;;;6.18;1.70;;;14.60;77.10;;;;;;5080358;28;20493;-59
2022/10/02 06:16:58;;;;;;;5.60;1.38;;;14.60;77.00;;;;;;5105691;28;20028;-60
2022/10/02 06:19:34;;;;;;;4.22;1.23;;;14.60;76.90;;;;;;5088274;28;20536;-60
2022/10/02 06:22:13;;;;;;;4.35;0.93;;;14.60;77.60;;;;;;5064305;28;20052;-60
2022/10/02 06:24:56;;;;;;;4.50;1.20;;;14.60;77.00;;;;;;5082155;28;20021;-60
2022/10/02 06:27:42;;;;;;;8.07;1.50;;;14.70;77.10;;;;;;5066382;28;20033;-59
2022/10/02 06:30:16;;;;;;;2.60;1.20;;;14.70;76.90;;;;;;5065697;28;20055;-59
2022/10/02 06:32:54;;;;;;;4.53;1.45;;;14.70;76.90;;;;;;5065691;28;20032;-59
2022/10/02 06:36:04;;;;;;;5.40;1.45;;;14.70;77.00;;;;;;5070965;28;20091;-59
2022/10/02 06:39:01;;;;;;;6.07;1.42;;;14.70;77.30;;;;;;5067479;28;20051;-60
2022/10/02 06:41:49;;;;;;;4.80;1.65;;;14.80;77.30;;;;;;5065507;28;20028;-61
2022/10/02 06:44:25;;;;;;;8.13;1.85;;;14.80;77.20;;;;;;5098116;28;20048;-59
2022/10/02 06:47:22;;;;;;;6.15;1.65;;;14.80;77.30;;;;;;5085277;28;20021;-59
2022/10/02 06:50:06;;;;;;;6.05;1.60;;;14.80;77.20;;;;;;5098418;28;20032;-61
2022/10/02 06:52:59;;;;;;;5.30;1.27;;;14.80;77.20;;;;;;5085466;28;20029;-60
2022/10/02 06:55:48;;;;;;;6.70;1.92;;;14.80;77.60;;;;;;5103943;28;20074;-59
2022/10/02 06:58:25;;;;;;;5.85;1.60;;;14.90;77.60;;;;;;5071429;28;20037;-59
2022/10/02 07:01:23;;;;;;;5.93;1.48;;;14.90;77.50;;;;;;5089134;28;20032;-59
2022/10/02 07:04:16;;;;;;;3.88;1.20;;;14.90;77.70;;;;;;5087024;28;20028;-59
2022/10/02 07:07:14;;;;;;;3.28;0.80;;;14.90;77.70;;;;;;5068136;28;20494;-59
2022/10/02 07:09:55;;;;;;;5.70;1.58;;;14.90;77.70;;;;;;5088249;28;20060;-59
2022/10/02 07:12:49;;;;;;;4.93;1.42;;;15.00;77.70;;;;;;5068689;28;20029;-59
2022/10/02 07:15:27;;;;;;;5.13;1.40;;;15.00;77.70;;;;;;5079515;28;20066;-58
2022/10/02 07:18:18;;;;;;;5.13;1.58;;;15.10;77.60;;;;;;5087943;28;20047;-59
2022/10/02 07:21:54;;;;;;;4.28;1.80;;;15.10;77.70;;;;;;5068772;28;20037;-60
2022/10/02 07:24:20;;;;;;;;;;;15.10;77.90;;;;;;4993518;28;20057;-59
2022/10/02 07:26:53;;;;;;;9.63;2.08;;;15.20;77.60;;;;;;5006118;28;19968;-61
2022/10/02 07:29:19;;;;;;;7.45;1.58;;;15.10;77.10;;;;;;4986824;28;20043;-58
2022/10/02 07:31:47;;;;;;;4.50;1.52;;;15.20;77.10;;;;;;5006067;28;20488;-59
2022/10/02 07:34:28;;;;;;;5.10;1.45;;;15.20;77.20;;;;;;4982795;28;20078;-60
2022/10/02 07:37:36;;;;;;;5.80;1.67;;;15.20;77.20;;;;;;4987435;28;20054;-59
2022/10/02 07:40:23;;;;;;;5.07;1.20;;;15.20;77.20;;;;;;4967301;28;20071;-60
2022/10/02 07:43:01;;;;;;;4.95;1.30;;;15.20;76.90;;;;;;4970925;28;20043;-59
2022/10/02 07:45:44;;;;;;;3.75;1.58;;;15.20;76.80;;;;;;5008042;28;20043;-59
2022/10/02 07:48:19;;;;;;;3.15;1.77;;;15.20;76.80;;;;;;4957718;28;20047;-62
2022/10/02 07:50:59;;;;;;;5.55;1.15;;;15.30;77.00;;;;;;4990760;28;20510;-58
2022/10/02 07:53:38;;;;;;;7.25;2.08;;;15.30;76.90;;;;;;4992428;28;20051;-59
2022/10/02 07:56:10;;;;;;;7.40;1.70;;;15.30;77.00;;;;;;5040347;28;20053;-60
2022/10/02 07:58:43;;;;;;;7.60;1.95;;;15.30;77.10;;;;;;5036415;28;20025;-59
2022/10/02 08:01:17;;;;;;;4.75;1.40;;;15.30;77.20;;;;;;5076243;28;20074;-59
2022/10/02 08:03:43;;;;;;;;;;;15.40;77.00;;;;;;5081827;28;20046;-59
2022/10/02 08:06:09;;;;;;;5.65;1.70;;;15.40;76.90;;;;;;5108726;28;19904;-59
2022/10/02 08:08:40;;;;;;;5.53;1.30;;;15.40;76.40;;;;;;5087491;28;20039;-60
2022/10/02 08:11:16;;;;;;;8.15;1.80;;;15.50;76.60;;;;;;5088561;28;20047;-59
2022/10/02 08:13:47;;;;;;;10.07;2.05;;;15.50;77.30;;;;;;5074027;28;20448;-60
2022/10/02 08:16:15;;;;;;;7.35;2.22;;;15.50;77.30;;;;;;5067133;28;20064;-60
2022/10/02 08:18:51;;;;;;;6.80;1.92;;;15.50;77.30;;;;;;5104510;28;20067;-60
2022/10/02 08:21:21;;;;;;;5.70;1.50;;;15.60;77.40;;;;;;5077506;28;20017;-60
2022/10/02 08:23:59;;;;;;;5.18;2.00;;;15.60;77.40;;;;;;5083573;28;20032;-59
2022/10/02 08:26:41;;;;;;;5.30;1.70;;;15.70;77.30;;;;;;5092781;28;20094;-60
2022/10/02 08:29:19;;;;;;;6.00;1.80;;;15.70;76.90;;;;;;5083429;28;20043;-60
2022/10/02 08:31:45;;;;;;;8.43;2.55;;;15.80;76.90;;;;;;5066808;28;20028;-60
2022/10/02 08:34:17;;;;;;;6.40;2.75;;;15.70;76.80;;;;;;5096382;28;20056;-59
2022/10/02 08:36:43;;;;;;;7.85;2.10;;;15.80;76.90;;;;;;5066383;28;20029;-59
2022/10/02 08:39:29;;;;;;;5.88;2.40;;;15.80;76.80;;;;;;5091131;28;20036;-58
2022/10/02 08:42:20;;;;;;;7.88;3.08;;;15.80;76.40;;;;;;5107574;28;20032;-58
2022/10/02 08:45:21;;;;;;;6.43;2.53;;;15.90;76.70;;;;;;5080809;28;20032;-58
2022/10/02 08:47:59;;;;;;;15.05;3.80;;;15.90;76.80;;;;;;5067299;28;20040;-59
2022/10/02 08:50:46;;;;;;;14.93;4.60;;;15.90;76.70;;;;;;5092750;28;20048;-59
2022/10/02 08:53:49;;;;;;;9.75;4.15;;;15.90;76.60;;;;;;5087448;28;20052;-59
2022/10/02 08:56:34;;;;;;;7.00;3.05;;;16.00;76.80;;;;;;5107194;28;20454;-59
2022/10/02 08:59:05;;;;;;;8.35;2.80;;;16.00;77.20;;;;;;5081204;28;20046;-60
2022/10/02 09:01:58;;;;;;;7.65;3.17;;;16.00;76.30;;;;;;5107154;28;20043;-60
2022/10/02 09:04:49;;;;;;;7.35;3.17;;;16.00;76.50;;;;;;5076615;28;20495;-60
2022/10/02 09:07:30;;;;;;;8.98;2.25;;;16.10;76.50;;;;;;5067826;28;20029;-60
2022/10/02 09:10:29;;;;;;;7.45;3.10;;;16.10;76.60;;;;;;5105650;28;20391;-59
2022/10/02 09:13:25;;;;;;;5.65;2.00;;;16.30;76.70;;;;;;5087181;28;20418;-60
2022/10/02 09:16:08;;;;;;;7.47;1.75;;;16.20;76.60;;;;;;5066529;28;20041;-59
2022/10/02 09:18:46;;;;;;;7.07;1.90;;;16.20;76.30;;;;;;5068840;28;20024;-60
2022/10/02 09:21:41;;;;;;;6.70;2.00;;;16.30;76.20;;;;;;5065661;28;20040;-60
2022/10/02 09:24:21;;;;;;;9.88;1.90;;;16.30;76.20;;;;;;5090761;28;20050;-59
2022/10/02 09:27:11;;;;;;;6.05;1.80;;;16.30;76.30;;;;;;5075163;28;20056;-59
2022/10/02 09:29:52;;;;;;;7.72;1.90;;;16.40;76.60;;;;;;5089239;28;20039;-58
2022/10/02 09:32:56;;;;;;;10.43;1.80;;;16.40;76.60;;;;;;5066327;28;20371;-59
2022/10/02 09:35:31;;;;;;;13.15;2.10;;;16.50;76.30;;;;;;5063064;28;20098;-59
2022/10/02 09:38:39;;;;;;;6.47;1.77;;;16.50;76.30;;;;;;5105198;28;20095;-61
2022/10/02 09:41:26;;;;;;;7.30;1.42;;;16.60;75.90;;;;;;5081955;28;20070;-59
2022/10/02 09:44:29;;;;;;;4.72;1.33;;;16.70;76.10;;;;;;5075735;28;20030;-60
2022/10/02 09:47:15;;;;;;;5.20;1.45;;;16.80;76.20;;;;;;5106644;28;20471;-59
2022/10/02 09:50:10;;;;;;;5.20;1.63;;;16.80;75.70;;;;;;5076363;28;20025;-60
2022/10/02 09:52:52;;;;;;;7.32;1.73;;;16.90;75.40;;;;;;5086085;28;20021;-60
2022/10/02 09:55:41;;;;;;;5.90;2.20;;;17.00;75.40;;;;;;5082086;28;20426;-59
2022/10/02 09:58:37;;;;;;;5.68;1.80;;;17.10;75.60;;;;;;5066082;28;20029;-60
2022/10/02 10:01:30;;;;;;;5.53;1.80;;;17.20;75.10;;;;;;5066036;28;20115;-58
2022/10/02 10:04:16;;;;;;;4.60;1.98;;;17.40;75.60;;;;;;5074975;28;20027;-60
2022/10/02 10:07:00;;;;;;;4.40;1.40;;;17.50;75.20;;;;;;5086405;28;20033;-59
2022/10/02 10:10:08;;;;;;;6.80;3.67;;;17.70;73.90;;;;;;5105279;28;20020;-60
2022/10/02 10:12:58;;;;;;;7.78;2.55;;;17.80;73.90;;;;;;5079242;28;20043;-60
2022/10/02 10:15:39;;;;;;;21.30;12.18;;;17.90;74.00;;;;;;5081944;28;20029;-60
2022/10/02 10:18:25;;;;;;;8.25;3.70;;;17.90;73.30;;;;;;5065425;28;20571;-59
2022/10/02 10:21:11;;;;;;;20.58;11.10;;;17.90;73.50;;;;;;5065684;28;20495;-60
2022/10/02 10:23:59;;;;;;;7.93;4.72;;;18.00;73.90;;;;;;5065588;28;20025;-59
2022/10/02 10:26:44;;;;;;;11.43;3.97;;;18.00;74.20;;;;;;5105085;28;20024;-59
2022/10/02 10:29:30;;;;;;;4.25;1.95;;;18.10;74.00;;;;;;5077605;28;20066;-59
2022/10/02 10:32:08;;;;;;;5.07;2.08;;;18.20;73.30;;;;;;5094702;28;20025;-60
2022/10/02 10:35:19;;;;;;;5.20;3.00;;;18.30;73.50;;;;;;5098729;28;20039;-60
2022/10/02 10:41:16;;;;;;;5.50;1.38;;;18.30;73.10;;;;;;5088873;28;20044;-60
2022/10/02 10:43:46;;;;;;;6.05;1.63;;;18.40;72.90;;;;;;5070837;28;20029;-59
2022/10/02 10:46:37;;;;;;;5.32;1.40;;;18.40;73.50;;;;;;5081529;28;20033;-61
2022/10/02 10:49:34;;;;;;;2.92;1.40;;;18.40;73.80;;;;;;5098760;28;20032;-60
2022/10/02 10:52:17;;;;;;;8.00;1.65;;;18.50;73.60;;;;;;5069485;28;20036;-60
2022/10/02 10:54:53;;;;;;;3.70;1.50;;;18.50;73.40;;;;;;5078896;28;20119;-61
2022/10/02 10:57:42;;;;;;;8.40;1.63;;;18.60;73.80;;;;;;5067999;28;20167;-60
2022/10/02 11:00:19;;;;;;;5.40;1.80;;;18.60;73.60;;;;;;5081131;28;20499;-60
2022/10/02 11:02:59;;;;;;;6.03;2.05;;;18.70;73.40;;;;;;5069130;28;20051;-60
2022/10/02 11:05:50;;;;;;;7.50;2.30;;;18.80;72.90;;;;;;5068269;28;20044;-61
2022/10/02 11:08:49;;;;;;;9.45;2.30;;;18.80;72.70;;;;;;5069146;28;20037;-61
2022/10/02 11:11:26;;;;;;;6.47;2.00;;;18.90;72.40;;;;;;5069059;28;20089;-62
2022/10/02 11:14:25;;;;;;;7.72;1.75;;;18.90;72.60;;;;;;5073339;28;20064;-61
2022/10/02 11:17:12;;;;;;;5.38;2.30;;;18.80;72.70;;;;;;5089248;28;20051;-60
2022/10/02 11:20:19;;;;;;;3.75;1.70;;;18.90;72.60;;;;;;5076890;28;20051;-60
2022/10/02 11:22:44;;;;;;;6.07;1.83;;;18.90;72.50;;;;;;5068934;28;20084;-59
2022/10/02 11:25:13;;;;;;;2.65;1.27;;;18.90;72.80;;;;;;5093353;28;20028;-60
2022/10/02 11:28:17;;;;;;;4.45;1.02;;;18.80;73.00;;;;;;5106833;28;20081;-60
2022/10/02 11:31:05;;;;;;;9.43;2.63;;;18.80;73.10;;;;;;5090342;28;20532;-60
2022/10/02 11:34:20;;;;;;;4.93;2.20;;;18.80;72.70;;;;;;5069121;28;20041;-60
2022/10/02 11:37:16;;;;;;;2.67;1.33;;;18.80;72.50;;;;;;5047921;28;20037;-60
2022/10/02 11:39:54;;;;;;;3.03;1.02;;;18.80;72.30;;;;;;5044409;28;20044;-59
2022/10/02 11:42:20;;;;;;;2.70;1.20;;;18.70;72.00;;;;;;5026369;28;20057;-61
2022/10/02 11:45:04;;;;;;;1.25;0.93;;;18.60;72.10;;;;;;5053313;28;20037;-59
2022/10/02 11:47:58;;;;;;;1.60;0.98;;;18.60;72.20;;;;;;5046171;28;20037;-61
2022/10/02 11:50:41;;;;;;;1.77;0.70;;;18.60;72.10;;;;;;5026041;28;20046;-61
2022/10/02 11:53:19;;;;;;;5.30;3.50;;;18.60;72.10;;;;;;5045921;28;20068;-60
2022/10/02 11:56:03;;;;;;;2.33;1.30;;;18.50;71.80;;;;;;5025261;28;20037;-59
2022/10/02 11:58:44;;;;;;;1.10;0.70;;;18.50;71.50;;;;;;5044947;28;20037;-59
2022/10/02 12:01:09;;;;;;;0.70;0.60;;;18.50;71.70;;;;;;5025888;28;20042;-59
2022/10/02 12:04:11;;;;;;;1.20;0.63;;;18.40;71.50;;;;;;5061880;28;20060;-60
2022/10/02 12:06:45;;;;;;;1.48;0.75;;;18.40;70.60;;;;;;5044839;28;20056;-59
2022/10/02 12:09:18;;;;;;;0.80;0.60;;;18.30;71.00;;;;;;5028880;28;20105;-59
2022/10/02 12:11:52;;;;;;;2.40;2.00;;;18.20;71.10;;;;;;5046646;28;20490;-59
2022/10/02 12:14:32;;;;;;;1.00;0.90;;;18.10;71.40;;;;;;5024798;28;20560;-59
2022/10/02 12:17:41;;;;;;;0.85;0.65;;;18.10;71.70;;;;;;5025777;28;20044;-60
2022/10/02 12:26:58;;;;;;;1.50;0.70;;;18.00;71.10;;;;;;5029247;28;20056;-61
2022/10/02 12:29:29;;;;;;;1.50;1.40;;;18.00;70.70;;;;;;5084322;28;20016;-60
2022/10/02 12:32:06;;;;;;;0.70;0.70;;;17.90;71.20;;;;;;5105083;28;20069;-60
2022/10/02 12:34:56;;;;;;;0.60;0.60;;;17.80;71.30;;;;;;5072368;28;20052;-59
2022/10/02 12:37:30;;;;;;;0.60;0.52;;;17.70;71.40;;;;;;5067385;28;20040;-61
2022/10/02 12:40:22;;;;;;;0.65;0.50;;;17.70;71.70;;;;;;5078039;28;20029;-59
2022/10/02 12:43:26;;;;;;;1.20;0.50;;;17.60;71.70;;;;;;5075792;28;20025;-60
2022/10/02 12:46:17;;;;;;;0.52;0.50;;;17.50;72.00;;;;;;5096985;28;20046;-60
2022/10/02 12:48:49;;;;;;;0.43;0.43;;;17.40;71.80;;;;;;5079362;28;20024;-62
2022/10/02 12:51:37;;;;;;;0.40;0.40;;;17.40;71.90;;;;;;5086185;28;20053;-61
2022/10/02 12:54:32;;;;;;;0.52;0.40;;;17.30;72.00;;;;;;5067791;28;20065;-60
2022/10/02 12:57:06;;;;;;;0.40;0.40;;;17.30;72.60;;;;;;5066621;28;20029;-61
2022/10/02 12:59:54;;;;;;;1.73;0.60;;;17.30;72.90;;;;;;5066089;28;20045;-59
2022/10/02 13:02:32;;;;;;;0.50;0.40;;;17.30;73.40;;;;;;5065898;28;20354;-59
2022/10/02 13:05:16;;;;;;;0.30;0.30;;;17.30;73.10;;;;;;5074953;28;20039;-60
2022/10/02 13:08:08;;;;;;;2.65;0.38;;;17.20;73.20;;;;;;5106471;28;20028;-59
2022/10/02 13:10:39;;;;;;;0.30;0.30;;;17.30;73.30;;;;;;5079286;28;20082;-61
2022/10/02 13:13:23;;;;;;;0.73;0.30;;;17.20;73.70;;;;;;5092779;28;20056;-59
2022/10/02 13:16:21;;;;;;;0.40;0.40;;;17.20;73.70;;;;;;5081439;28;20032;-60
2022/10/02 13:19:05;;;;;;;0.30;0.30;;;17.30;73.30;;;;;;5065532;28;20102;-59
2022/10/02 13:21:34;;;;;;;0.30;0.20;;;17.20;73.10;;;;;;5066831;28;20159;-60
2022/10/02 13:24:09;;;;;;;0.30;0.30;;;17.20;73.10;;;;;;5101612;28;20024;-59
2022/10/02 13:26:46;;;;;;;0.30;0.30;;;17.20;73.40;;;;;;5106639;28;20024;-59
2022/10/02 13:29:33;;;;;;;0.32;0.32;;;17.10;73.60;;;;;;5067254;28;20021;-61
2022/10/02 13:32:32;;;;;;;0.20;0.20;;;17.10;73.80;;;;;;5086441;28;20016;-60
2022/10/02 13:35:20;;;;;;;0.40;0.40;;;17.10;74.30;;;;;;5062121;28;20059;-59
2022/10/02 13:37:54;;;;;;;1.92;0.35;;;17.10;75.40;;;;;;5105779;28;20028;-61
2022/10/02 13:40:52;;;;;;;0.55;0.30;;;17.20;75.00;;;;;;5076111;28;20016;-60
2022/10/02 13:43:41;;;;;;;0.60;0.30;;;17.20;75.20;;;;;;5066186;28;20058;-61
2022/10/02 13:46:37;;;;;;;0.40;0.40;;;17.30;74.70;;;;;;5082507;28;20082;-61
2022/10/02 13:49:11;;;;;;;0.88;0.30;;;17.30;73.90;;;;;;5083176;28;20054;-61
2022/10/02 13:52:01;;;;;;;0.30;0.30;;;17.30;73.90;;;;;;5105655;28;20055;-58
2022/10/02 13:54:55;;;;;;;2.08;0.60;;;17.30;73.60;;;;;;5067898;28;20092;-60
2022/10/02 13:57:48;;;;;;;0.47;0.43;;;17.20;73.40;;;;;;5085841;28;20025;-59
2022/10/02 14:00:36;;;;;;;0.30;0.30;;;17.20;73.30;;;;;;5095107;28;20044;-60
2022/10/02 14:03:16;;;;;;;0.40;0.40;;;17.20;73.50;;;;;;5105360;28;20024;-59
2022/10/02 14:05:52;;;;;;;1.05;0.40;;;17.10;73.30;;;;;;5078089;28;20024;-59
2022/10/02 14:08:30;;;;;;;1.55;0.40;;;17.10;73.20;;;;;;5080802;28;20024;-61
2022/10/02 14:11:23;;;;;;;0.98;0.40;;;17.00;73.10;;;;;;5089548;28;20032;-62